createdAt,value
2023-03-23T16:01:22.363Z,11.80
2023-03-23T16:06:27.818Z,11.76
2023-03-23T16:11:33.642Z,11.69
2023-03-23T16:16:41.848Z,11.58
2023-03-23T16:21:44.562Z,11.39
2023-03-23T16:26:47.204Z,11.44
2023-03-23T16:31:49.845Z,11.24
2023-03-23T16:36:52.487Z,11.05
2023-03-23T16:41:56.241Z,11.02
2023-03-23T16:46:58.902Z,10.74
2023-03-23T16:52:01.472Z,10.63
2023-03-23T16:57:04.178Z,10.25
2023-03-23T17:02:07.860Z,10.09
2023-03-23T17:07:13.233Z,10.05
2023-03-23T17:12:15.827Z,10.14
2023-03-23T17:17:19.127Z,9.99
2023-03-23T17:22:21.769Z,9.75
2023-03-23T17:27:25.259Z,9.68
2023-03-23T17:32:28.116Z,9.53
2023-03-23T17:37:31.096Z,9.49
2023-03-23T17:42:33.792Z,9.33
2023-03-23T17:47:36.812Z,9.39
2023-03-23T17:52:40.494Z,9.55
2023-03-23T17:57:44.792Z,9.61
2023-03-23T18:03:02.830Z,9.65
2023-03-23T18:08:07.491Z,9.47
2023-03-23T18:13:10.770Z,9.58
2023-03-23T18:18:13.647Z,9.68
2023-03-23T18:23:17.046Z,9.59
2023-03-23T18:28:21.012Z,9.72
2023-03-23T18:33:25.283Z,9.80
2023-03-23T18:38:29.496Z,9.76
2023-03-23T18:43:32.096Z,9.78
2023-03-23T18:48:36.209Z,9.58
2023-03-23T18:53:39.180Z,9.31
2023-03-23T18:58:41.914Z,9.30
2023-03-23T19:03:45.753Z,9.18
2023-03-23T19:08:49.935Z,9.13
2023-03-23T19:14:01.632Z,8.80
2023-03-23T19:19:08.415Z,8.79
2023-03-23T19:24:12.066Z,8.73
2023-03-23T19:34:25.045Z,8.46
2023-03-23T19:39:28.075Z,8.67
2023-03-23T19:44:30.643Z,8.64
2023-03-23T19:49:33.238Z,8.70
2023-03-23T19:54:36.738Z,8.70
2023-03-23T19:59:39.645Z,8.53
2023-03-23T20:04:43.709Z,8.40
2023-03-23T20:09:48.627Z,8.66
2023-03-23T20:14:51.368Z,8.27
2023-03-23T20:19:53.922Z,8.11
2023-03-23T20:24:56.521Z,7.79
2023-03-23T20:29:59.246Z,7.52
2023-03-23T20:35:06.489Z,7.30
2023-03-23T20:40:12.206Z,7.41
2023-03-23T20:45:16.223Z,7.39
2023-03-23T20:50:21.555Z,7.61
2023-03-23T20:55:24.210Z,7.85
2023-03-23T21:00:26.760Z,7.65
2023-03-23T21:05:29.884Z,7.63
2023-03-23T21:10:33.092Z,7.62
2023-03-23T21:15:35.751Z,7.05
2023-03-23T21:20:38.970Z,7.06
2023-03-23T21:25:44.748Z,7.44
2023-03-23T21:30:49.475Z,7.10
2023-03-23T21:35:51.962Z,7.20
2023-03-23T21:41:00.637Z,7.07
2023-03-23T21:46:08.965Z,7.14
2023-03-23T21:51:14.940Z,7.24
2023-03-23T21:56:17.960Z,7.25
2023-03-23T22:01:21.558Z,7.36
2023-03-23T22:06:27.126Z,7.30
2023-03-23T22:11:31.828Z,6.88
2023-03-23T22:16:37.439Z,6.84
2023-03-23T22:21:43.064Z,6.72
2023-03-23T22:26:45.762Z,6.78
2023-03-23T22:31:48.432Z,6.87
2023-03-23T22:36:52.614Z,6.70
2023-03-23T22:41:55.556Z,6.54
2023-03-23T22:46:58.308Z,6.64
2023-03-23T22:52:00.960Z,6.62
2023-03-23T22:57:03.960Z,6.68
2023-03-23T23:02:06.776Z,6.63
2023-03-23T23:07:14.559Z,6.67
2023-03-23T23:12:18.575Z,6.55
2023-03-23T23:17:23.589Z,6.58
2023-03-23T23:22:26.681Z,6.58
2023-03-23T23:27:29.348Z,6.43
2023-03-23T23:32:34.028Z,6.50
2023-03-23T23:37:36.862Z,6.55
2023-03-23T23:42:39.479Z,6.49
2023-03-23T23:47:43.023Z,6.50
2023-03-23T23:52:46.919Z,6.44
2023-03-23T23:57:49.884Z,6.46
